Time;durP1;ratioP1;P1;durP2;ratioP2;P2;SDS_P1;SDS_P2;PMS_P1;PMS_P2;Temp;Humidity;BMP_temperature;BMP_pressure;BME280_temperature;BME280_humidity;BME280_pressure;Samples;Min_cycle;Max_cycle;Signal;HPM_P1;HPM_P2
2022/04/22 00:02:12;;;;;;;;;;;12.00;60.90;;;;;;5151268;27;19921;-73
2022/04/22 00:04:38;;;;;;;;;;;12.00;61.30;;;;;;5151316;27;20010;-73
2022/04/22 00:07:04;;;;;;;;;;;12.00;61.60;;;;;;5151297;27;19918;-73
2022/04/22 00:09:30;;;;;;;;;;;11.90;62.00;;;;;;5132928;27;20514;-73
2022/04/22 00:11:55;;;;;;;;;;;11.90;61.80;;;;;;5151217;27;20010;-73
2022/04/22 00:14:21;;;;;;;;;;;11.90;61.70;;;;;;5151062;27;19915;-73
2022/04/22 00:16:46;;;;;;;;;;;11.90;61.70;;;;;;5151085;27;19956;-73
2022/04/22 00:19:12;;;;;;;;;;;11.80;61.60;;;;;;5150904;27;20376;-74
2022/04/22 00:21:41;;;;;;;;;;;11.80;61.60;;;;;;5151031;27;19931;-74
2022/04/22 00:24:07;;;;;;;;;;;11.80;61.90;;;;;;5150840;27;20488;-74
2022/04/22 00:26:33;;;;;;;;;;;11.70;62.00;;;;;;5150907;27;20034;-74
2022/04/22 00:28:58;;;;;;;;;;;11.70;62.00;;;;;;5150773;27;19918;-74
2022/04/22 00:31:24;;;;;;;;;;;11.60;62.20;;;;;;5150838;27;19929;-74
2022/04/22 00:33:49;;;;;;;;;;;11.60;62.20;;;;;;5150660;27;20304;-73
2022/04/22 00:36:15;;;;;;;;;;;11.60;62.20;;;;;;5150532;27;19926;-74
2022/04/22 00:38:41;;;;;;;;;;;11.60;62.30;;;;;;5149685;27;19998;-74
2022/04/22 00:41:06;;;;;;;;;;;11.50;62.20;;;;;;5150565;27;19907;-74
2022/04/22 00:43:42;;;;;;;;;;;11.50;62.10;;;;;;5150423;27;19922;-73
2022/04/22 00:46:07;;;;;;;;;;;11.50;62.30;;;;;;5131847;27;19959;-73
2022/04/22 00:48:33;;;;;;;;;;;11.50;62.10;;;;;;5131916;27;19920;-74
2022/04/22 00:50:59;;;;;;;;;;;11.50;62.10;;;;;;5150532;27;19907;-74
2022/04/22 00:53:25;;;;;;;;;;;11.40;62.00;;;;;;5150160;27;19907;-70
2022/04/22 00:55:51;;;;;;;;;;;11.40;62.00;;;;;;5131745;27;20283;-73
2022/04/22 00:58:16;;;;;;;;;;;11.40;62.00;;;;;;5150231;27;19911;-74
2022/04/22 01:00:42;;;;;;;;;;;11.40;62.10;;;;;;5150182;27;19911;-74
2022/04/22 01:03:08;;;;;;;;;;;11.40;62.10;;;;;;5150056;27;19912;-73
2022/04/22 01:11:03;;;;;;;;;;;11.30;62.10;;;;;;5150893;27;20352;-74
2022/04/22 01:13:28;;;;;;;;;;;11.30;62.10;;;;;;5150021;27;19937;-73
2022/04/22 01:15:54;;;;;;;;;;;11.30;61.90;;;;;;5149986;27;19911;-73
2022/04/22 01:18:20;;;;;;;;;;;11.30;61.90;;;;;;5149910;27;20002;-74
2022/04/22 01:20:46;;;;;;;;;;;11.30;62.00;;;;;;5149963;27;20001;-73
2022/04/22 01:23:11;;;;;;;;;;;11.20;61.90;;;;;;5149865;27;19926;-73
2022/04/22 01:25:37;;;;;;;;;;;11.20;61.90;;;;;;5131421;27;20361;-74
2022/04/22 01:28:02;;;;;;;;;;;11.10;61.90;;;;;;5149758;27;19907;-73
2022/04/22 01:30:28;;;;;;;;;;;11.10;62.20;;;;;;5149786;27;20349;-74
2022/04/22 01:32:54;;;;;;;;;;;11.10;62.20;;;;;;5149663;27;19910;-73
2022/04/22 01:35:20;;;;;;;;;;;11.10;62.20;;;;;;5149375;27;20349;-74
2022/04/22 01:37:46;;;;;;;;;;;11.10;62.10;;;;;;5131169;27;19968;-73
2022/04/22 01:40:12;;;;;;;;;;;11.00;62.20;;;;;;5149691;27;19915;-74
2022/04/22 01:42:38;;;;;;;;;;;11.00;62.10;;;;;;5149563;27;19923;-73
2022/04/22 01:45:04;;;;;;;;;;;11.00;62.20;;;;;;5149647;27;19918;-74
2022/04/22 01:47:30;;;;;;;;;;;10.90;62.30;;;;;;5149608;27;19953;-74
2022/04/22 01:49:56;;;;;;;;;;;11.00;62.40;;;;;;5152225;27;19956;-73
2022/04/22 01:52:22;;;;;;;;;;;10.90;62.60;;;;;;5153768;27;19919;-74
2022/04/22 01:54:50;;;;;;;;;;;10.90;62.50;;;;;;5153943;27;20141;-74
2022/04/22 01:57:15;;;;;;;;;;;10.90;62.60;;;;;;5153763;27;19961;-73
2022/04/22 01:59:44;;;;;;;;;;;10.90;62.50;;;;;;5153860;27;19958;-73
2022/04/22 02:02:10;;;;;;;;;;;10.80;62.50;;;;;;5153687;27;19922;-73
2022/04/22 02:04:35;;;;;;;;;;;10.80;62.50;;;;;;5153932;27;19907;-73
2022/04/22 02:07:01;;;;;;;;;;;10.80;62.50;;;;;;5153662;27;19967;-74
2022/04/22 02:09:27;;;;;;;;;;;10.70;62.40;;;;;;5153633;27;19907;-73
2022/04/22 02:11:53;;;;;;;;;;;10.70;62.40;;;;;;5134853;27;19918;-73
2022/04/22 02:14:19;;;;;;;;;;;10.70;62.40;;;;;;5153466;27;19963;-73
2022/04/22 02:16:44;;;;;;;;;;;10.70;62.30;;;;;;5153466;27;19911;-74
2022/04/22 02:19:10;;;;;;;;;;;10.70;62.30;;;;;;5153423;27;19907;-73
2022/04/22 02:21:36;;;;;;;;;;;10.70;63.20;;;;;;5153486;27;19925;-73
2022/04/22 02:24:01;;;;;;;;;;;10.70;63.20;;;;;;5153194;27;19919;-73
2022/04/22 02:26:27;;;;;;;;;;;10.70;63.10;;;;;;5153230;27;19911;-73
2022/04/22 02:28:52;;;;;;;;;;;10.60;63.20;;;;;;5153208;27;20276;-73
2022/04/22 02:31:18;;;;;;;;;;;10.70;63.40;;;;;;5134641;27;20254;-73
2022/04/22 02:33:44;;;;;;;;;;;10.60;63.40;;;;;;5153048;27;19911;-74
2022/04/22 02:36:10;;;;;;;;;;;10.60;63.50;;;;;;5152826;27;19919;-73
2022/04/22 02:38:35;;;;;;;;;;;10.50;63.50;;;;;;5134496;27;20349;-73
2022/04/22 02:46:43;;;;;;;;;;;10.50;63.90;;;;;;5106487;27;19917;-73
2022/04/22 02:49:08;;;;;;;;;;;10.40;63.90;;;;;;5134232;27;20006;-74
2022/04/22 02:51:34;;;;;;;;;;;10.40;64.10;;;;;;5134139;27;19915;-74
2022/04/22 02:54:00;;;;;;;;;;;10.40;64.10;;;;;;5153229;27;19918;-73
2022/04/22 02:56:26;;;;;;;;;;;10.40;64.10;;;;;;5152765;27;19915;-73
2022/04/22 02:58:52;;;;;;;;;;;10.40;64.30;;;;;;5152739;27;19934;-73
2022/04/22 03:01:17;;;;;;;;;;;10.30;64.40;;;;;;5132945;27;19971;-73
2022/04/22 03:03:43;;;;;;;;;;;10.30;64.30;;;;;;5133925;27;20327;-73
2022/04/22 03:06:09;;;;;;;;;;;10.30;64.60;;;;;;5152492;27;20017;-73
2022/04/22 03:08:34;;;;;;;;;;;10.30;64.30;;;;;;5152485;27;20024;-73
2022/04/22 03:11:00;;;;;;;;;;;10.30;64.30;;;;;;5152454;27;19963;-73
2022/04/22 03:13:26;;;;;;;;;;;10.30;64.20;;;;;;5152439;27;19923;-73
2022/04/22 03:15:52;;;;;;;;;;;10.30;64.30;;;;;;5152365;27;19945;-73
2022/04/22 03:18:19;;;;;;;;;;;10.30;64.20;;;;;;5152268;27;19948;-73
2022/04/22 03:20:44;;;;;;;;;;;10.20;64.00;;;;;;5152200;27;19907;-73
2022/04/22 03:23:10;;;;;;;;;;;10.20;64.00;;;;;;5152243;27;19934;-73
2022/04/22 03:25:36;;;;;;;;;;;10.20;64.20;;;;;;5152261;27;20005;-73
2022/04/22 03:28:04;;;;;;;;;;;10.10;64.00;;;;;;5152091;27;19969;-73
2022/04/22 03:30:29;;;;;;;;;;;10.10;64.30;;;;;;5152144;27;20417;-73
2022/04/22 03:32:55;;;;;;;;;;;10.10;64.00;;;;;;5133630;27;19912;-73
2022/04/22 03:35:21;;;;;;;;;;;10.10;64.40;;;;;;5151787;27;20460;-73
2022/04/22 03:37:46;;;;;;;;;;;10.10;64.70;;;;;;5151833;27;19919;-73
2022/04/22 03:40:12;;;;;;;;;;;10.10;64.50;;;;;;5151924;27;19907;-73
2022/04/22 03:42:37;;;;;;;;;;;10.10;65.00;;;;;;5151728;27;19919;-73
2022/04/22 03:45:04;;;;;;;;;;;10.00;64.40;;;;;;5151917;27;19912;-73
2022/04/22 03:47:30;;;;;;;;;;;10.10;64.40;;;;;;5151541;27;19915;-73
2022/04/22 03:49:56;;;;;;;;;;;10.10;64.40;;;;;;5132880;27;20245;-73
2022/04/22 03:52:21;;;;;;;;;;;10.00;64.30;;;;;;5151374;27;19957;-73
2022/04/22 03:54:47;;;;;;;;;;;10.00;64.30;;;;;;5132762;27;20357;-73
2022/04/22 03:59:57;;;;;;;;;;;10.00;64.40;;;;;;5151699;27;19968;-73
2022/04/22 04:02:22;;;;;;;;;;;10.00;64.60;;;;;;5132639;27;19919;-73
2022/04/22 04:04:48;;;;;;;;;;;9.90;64.80;;;;;;5151322;27;19918;-73
2022/04/22 04:07:14;;;;;;;;;;;10.00;64.60;;;;;;5151056;27;20293;-74
2022/04/22 04:17:52;;;;;;;;;;;9.90;64.80;;;;;;5151439;27;19953;-74
2022/04/22 04:23:14;;;;;;;;;;;9.80;64.80;;;;;;5151255;27;19980;-74
2022/04/22 04:25:40;;;;;;;;;;;9.80;64.70;;;;;;5150921;27;20419;-74
2022/04/22 04:28:09;;;;;;;;;;;9.80;64.70;;;;;;5150970;27;19999;-74
2022/04/22 04:30:38;;;;;;;;;;;9.80;64.80;;;;;;5150851;27;19946;-73
2022/04/22 04:33:04;;;;;;;;;;;9.80;64.70;;;;;;5150912;27;19907;-73
2022/04/22 04:35:30;;;;;;;;;;;9.80;64.60;;;;;;5150710;27;19923;-74
2022/04/22 04:37:55;;;;;;;;;;;9.80;64.60;;;;;;5150772;27;19922;-74
2022/04/22 04:40:21;;;;;;;;;;;9.80;64.60;;;;;;5150739;27;19926;-74
2022/04/22 04:42:47;;;;;;;;;;;9.80;64.50;;;;;;5150503;27;19920;-74
2022/04/22 04:45:12;;;;;;;;;;;9.80;65.20;;;;;;5150539;27;19922;-74
2022/04/22 04:47:41;;;;;;;;;;;9.70;64.50;;;;;;5150354;27;19911;-73
2022/04/22 04:50:08;;;;;;;;;;;9.70;64.60;;;;;;5150519;27;19950;-73
2022/04/22 04:52:34;;;;;;;;;;;9.70;64.60;;;;;;5150383;27;19963;-74
2022/04/22 04:55:00;;;;;;;;;;;9.70;64.50;;;;;;5131761;27;20384;-74
2022/04/22 04:57:26;;;;;;;;;;;9.70;65.00;;;;;;5150346;27;19957;-74
2022/04/22 04:59:52;;;;;;;;;;;9.70;64.70;;;;;;5131932;27;20381;-74
2022/04/22 05:02:17;;;;;;;;;;;9.70;64.80;;;;;;5150216;27;19911;-74
2022/04/22 05:04:43;;;;;;;;;;;9.70;64.70;;;;;;5114541;27;19911;-74
2022/04/22 05:07:08;;;;;;;;;;;9.70;64.90;;;;;;5150074;27;20318;-74
2022/04/22 05:09:34;;;;;;;;;;;9.70;64.80;;;;;;5149995;27;20306;-74
2022/04/22 05:12:00;;;;;;;;;;;9.60;64.90;;;;;;5131597;27;20299;-73
2022/04/22 05:14:26;;;;;;;;;;;9.60;64.90;;;;;;5150119;27;19915;-74
2022/04/22 05:16:51;;;;;;;;;;;9.70;64.80;;;;;;5149788;27;20221;-73
2022/04/22 05:19:19;;;;;;;;;;;9.70;64.90;;;;;;5150120;27;19954;-73
2022/04/22 05:21:44;;;;;;;;;;;9.70;64.70;;;;;;5131568;27;20374;-73
2022/04/22 05:24:10;;;;;;;;;;;9.70;64.70;;;;;;5149170;27;19911;-73
2022/04/22 05:26:35;;;;;;;;;;;9.80;64.90;;;;;;5149782;27;19963;-73
2022/04/22 05:29:01;;;;;;;;;;;9.80;64.80;;;;;;5149783;27;20010;-73
2022/04/22 05:34:10;;;;;;;;;;;9.90;65.10;;;;;;5150014;27;19924;-73
2022/04/22 05:36:36;;;;;;;;;;;9.90;65.10;;;;;;5149574;27;19919;-74
2022/04/22 05:39:03;;;;;;;;;;;10.00;65.10;;;;;;5149970;27;19965;-73
2022/04/22 05:41:29;;;;;;;;;;;10.00;65.00;;;;;;5149718;27;19914;-73
2022/04/22 05:43:54;;;;;;;;;;;10.00;65.20;;;;;;5149574;27;19919;-74
2022/04/22 05:46:20;;;;;;;;;;;10.10;65.30;;;;;;5149834;27;20030;-74
2022/04/22 05:48:45;;;;;;;;;;;10.10;65.30;;;;;;5149351;27;20403;-73
2022/04/22 05:51:11;;;;;;;;;;;10.20;65.40;;;;;;5149437;27;20349;-73
2022/04/22 05:53:36;;;;;;;;;;;10.20;65.40;;;;;;5149465;27;19940;-73
2022/04/22 05:56:02;;;;;;;;;;;10.30;65.50;;;;;;5130881;27;19918;-70
2022/04/22 05:58:28;;;;;;;;;;;10.40;65.90;;;;;;5149934;27;19949;-73
2022/04/22 06:00:53;;;;;;;;;;;10.50;65.80;;;;;;5149400;27;19911;-74
2022/04/22 06:03:19;;;;;;;;;;;10.50;65.80;;;;;;5149280;27;19915;-74
2022/04/22 06:05:44;;;;;;;;;;;10.70;66.00;;;;;;5149156;27;19911;-74
2022/04/22 06:10:54;;;;;;;;;;;10.70;65.90;;;;;;5149805;27;19921;-73
2022/04/22 06:13:20;;;;;;;;;;;10.90;65.90;;;;;;5149393;27;20361;-73
2022/04/22 06:15:45;;;;;;;;;;;10.90;66.10;;;;;;5149076;27;19915;-73
2022/04/22 06:18:11;;;;;;;;;;;11.00;66.20;;;;;;5149672;27;19917;-73
2022/04/22 06:20:36;;;;;;;;;;;10.90;66.60;;;;;;5148938;27;20385;-74
2022/04/22 06:23:02;;;;;;;;;;;11.00;66.20;;;;;;5130368;27;19915;-74
2022/04/22 06:25:28;;;;;;;;;;;11.00;66.30;;;;;;5149095;27;19932;-73
2022/04/22 06:27:54;;;;;;;;;;;11.20;66.40;;;;;;5148404;27;20005;-73
2022/04/22 06:30:20;;;;;;;;;;;11.20;66.50;;;;;;5130738;27;19914;-74
2022/04/22 06:32:47;;;;;;;;;;;11.30;66.50;;;;;;5130326;27;19921;-73
2022/04/22 06:35:13;;;;;;;;;;;11.40;66.40;;;;;;5150029;27;20381;-73
2022/04/22 06:37:43;;;;;;;;;;;11.50;66.50;;;;;;5134427;27;20276;-73
2022/04/22 06:45:47;;;;;;;;;;;11.70;66.60;;;;;;5153057;27;19977;-73
2022/04/22 06:48:17;;;;;;;;;;;11.80;66.80;;;;;;5152677;27;19911;-74
2022/04/22 06:50:44;;;;;;;;;;;12.00;67.20;;;;;;5152544;27;19907;-73
2022/04/22 06:53:10;;;;;;;;;;;12.10;66.80;;;;;;5152466;27;20397;-74
2022/04/22 06:55:36;;;;;;;;;;;12.30;66.90;;;;;;5133228;27;20263;-73
2022/04/22 06:58:02;;;;;;;;;;;12.50;66.70;;;;;;5151882;27;20361;-74
2022/04/22 07:00:28;;;;;;;;;;;12.60;66.70;;;;;;5152504;27;19996;-72
2022/04/22 07:02:55;;;;;;;;;;;12.60;66.60;;;;;;5133909;27;19997;-73
2022/04/22 07:05:20;;;;;;;;;;;12.70;66.60;;;;;;5152105;27;19907;-74
2022/04/22 07:07:47;;;;;;;;;;;12.70;66.60;;;;;;5151822;27;20334;-74
2022/04/22 07:10:13;;;;;;;;;;;12.70;66.60;;;;;;5133417;27;19918;-74
2022/04/22 07:12:39;;;;;;;;;;;12.80;66.80;;;;;;5152257;27;19915;-73
2022/04/22 07:15:06;;;;;;;;;;;12.90;67.10;;;;;;5152085;27;19914;-74
2022/04/22 07:17:34;;;;;;;;;;;13.10;67.10;;;;;;5152050;27;19911;-74
2022/04/22 07:20:05;;;;;;;;;;;13.30;67.00;;;;;;5152085;27;19950;-73
2022/04/22 07:22:31;;;;;;;;;;;13.50;66.70;;;;;;5151894;27;19971;-74
2022/04/22 07:24:57;;;;;;;;;;;13.60;66.60;;;;;;5151758;27;19921;-74
2022/04/22 07:27:30;;;;;;;;;;;14.00;66.80;;;;;;5151593;27;19911;-74
2022/04/22 07:29:57;;;;;;;;;;;14.20;66.50;;;;;;5151890;27;19907;-74
2022/04/22 07:32:22;;;;;;;;;;;14.50;66.40;;;;;;5151746;27;19910;-74
2022/04/22 07:34:48;;;;;;;;;;;14.80;66.50;;;;;;5133014;27;20452;-74
2022/04/22 07:37:14;;;;;;;;;;;15.20;66.40;;;;;;5151226;27;19919;-74
2022/04/22 07:39:39;;;;;;;;;;;15.80;66.40;;;;;;5151393;27;20015;-75
2022/04/22 07:42:08;;;;;;;;;;;16.50;65.90;;;;;;5151257;27;19943;-73
2022/04/22 07:47:22;;;;;;;;;;;16.80;63.90;;;;;;5150972;27;19918;-74
2022/04/22 07:49:48;;;;;;;;;;;16.70;64.20;;;;;;5151049;27;19938;-74
2022/04/22 07:52:14;;;;;;;;;;;17.10;64.60;;;;;;5150898;27;20436;-74
2022/04/22 07:54:39;;;;;;;;;;;17.20;63.70;;;;;;5151069;27;19911;-73
2022/04/22 07:57:05;;;;;;;;;;;17.10;63.60;;;;;;5132145;27;19918;-74
2022/04/22 07:59:33;;;;;;;;;;;17.10;64.10;;;;;;5150782;27;19918;-74
2022/04/22 08:02:01;;;;;;;;;;;17.10;64.40;;;;;;5150661;27;19922;-74
2022/04/22 08:04:27;;;;;;;;;;;17.60;64.30;;;;;;5150739;27;20024;-74
2022/04/22 08:06:52;;;;;;;;;;;17.60;63.70;;;;;;5150622;27;20370;-74
2022/04/22 08:09:18;;;;;;;;;;;17.50;62.80;;;;;;5150582;27;19911;-74
2022/04/22 08:11:43;;;;;;;;;;;17.30;62.90;;;;;;5150585;27;19964;-74
2022/04/22 08:14:12;;;;;;;;;;;17.10;62.10;;;;;;5150500;27;20383;-73
2022/04/22 08:16:38;;;;;;;;;;;16.60;62.40;;;;;;5150298;27;20285;-74
2022/04/22 08:19:04;;;;;;;;;;;17.00;64.10;;;;;;5150394;27;19961;-74
2022/04/22 08:21:33;;;;;;;;;;;17.90;63.90;;;;;;5150224;27;19954;-74
2022/04/22 08:24:02;;;;;;;;;;;18.60;62.70;;;;;;5132333;27;19919;-74
2022/04/22 08:26:30;;;;;;;;;;;18.90;62.10;;;;;;5150305;27;19907;-74
2022/04/22 08:28:55;;;;;;;;;;;18.70;61.30;;;;;;5131609;27;20002;-74
2022/04/22 08:31:21;;;;;;;;;;;18.40;61.30;;;;;;5149956;27;20457;-73
2022/04/22 08:33:48;;;;;;;;;;;18.00;61.50;;;;;;5131454;27;19963;-74
2022/04/22 08:36:14;;;;;;;;;;;18.10;61.70;;;;;;5150138;27;19975;-74
2022/04/22 08:38:40;;;;;;;;;;;17.80;61.20;;;;;;5150008;27;19933;-74
2022/04/22 08:41:07;;;;;;;;;;;17.60;61.40;;;;;;5150100;27;19911;-74
2022/04/22 08:43:33;;;;;;;;;;;17.40;61.70;;;;;;5149728;27;19944;-73
2022/04/22 08:45:58;;;;;;;;;;;17.20;61.50;;;;;;5149594;27;19911;-74
2022/04/22 08:51:09;;;;;;;;;;;16.80;62.20;;;;;;5149902;27;19941;-74
2022/04/22 08:53:36;;;;;;;;;;;17.30;62.60;;;;;;5149619;27;19907;-74
2022/04/22 08:56:02;;;;;;;;;;;17.80;62.40;;;;;;5149838;27;19919;-73
2022/04/22 08:58:29;;;;;;;;;;;18.00;61.60;;;;;;5148495;27;20380;-74
2022/04/22 09:00:57;;;;;;;;;;;17.90;61.10;;;;;;5130749;27;19997;-73
2022/04/22 09:03:25;;;;;;;;;;;17.90;61.50;;;;;;5149107;27;19990;-73
2022/04/22 09:05:50;;;;;;;;;;;18.30;62.00;;;;;;5149047;27;19932;-73
2022/04/22 09:08:17;;;;;;;;;;;18.70;61.30;;;;;;5150095;27;19907;-72
2022/04/22 09:10:42;;;;;;;;;;;19.10;61.40;;;;;;5149413;27;19919;-71
2022/04/22 09:13:10;;;;;;;;;;;19.80;61.10;;;;;;5130667;27;19907;-72
2022/04/22 09:15:36;;;;;;;;;;;20.60;60.20;;;;;;5150443;27;19992;-73
2022/04/22 09:18:08;;;;;;;;;;;21.10;59.50;;;;;;5150099;27;19919;-73
2022/04/22 09:20:34;;;;;;;;;;;21.40;59.30;;;;;;5149929;27;19919;-72
2022/04/22 09:23:00;;;;;;;;;;;21.80;58.90;;;;;;5149514;27;19915;-72
2022/04/22 09:25:26;;;;;;;;;;;21.70;57.50;;;;;;5149448;27;19919;-73
2022/04/22 09:27:52;;;;;;;;;;;21.20;56.10;;;;;;5148612;27;20014;-73
2022/04/22 09:30:18;;;;;;;;;;;20.40;56.40;;;;;;5149267;27;19963;-72
2022/04/22 09:32:46;;;;;;;;;;;19.50;56.10;;;;;;5147648;27;19947;-73
2022/04/22 09:35:13;;;;;;;;;;;18.90;56.60;;;;;;5147285;27;19945;-76
2022/04/22 09:43:24;;;;;;;;;;;17.30;57.80;;;;;;5148635;27;19922;-75
2022/04/22 09:45:51;;;;;;;;;;;16.90;57.90;;;;;;5148884;27;19927;-75
2022/04/22 09:48:20;;;;;;;;;;;16.60;58.30;;;;;;5149119;27;19938;-74
2022/04/22 09:50:45;;;;;;;;;;;16.40;58.40;;;;;;5129656;27;19915;-74
2022/04/22 09:53:12;;;;;;;;;;;16.10;58.90;;;;;;5148486;27;19915;-74
2022/04/22 09:55:47;;;;;;;;;;;16.10;59.10;;;;;;5146551;27;19911;-74
2022/04/22 09:58:20;;;;;;;;;;;15.90;59.10;;;;;;5147330;27;19923;-75
2022/04/22 10:00:47;;;;;;;;;;;15.80;59.30;;;;;;5148485;27;20337;-74
2022/04/22 10:03:13;;;;;;;;;;;15.80;59.50;;;;;;5148903;27;19919;-74
2022/04/22 10:05:39;;;;;;;;;;;15.80;59.60;;;;;;5149092;27;19956;-74
2022/04/22 10:08:05;;;;;;;;;;;15.90;59.60;;;;;;5149072;27;19912;-68
2022/04/22 10:10:33;;;;;;;;;;;15.90;59.50;;;;;;5132080;27;19921;-73
2022/04/22 10:13:00;;;;;;;;;;;15.80;59.30;;;;;;5132177;27;19998;-71
2022/04/22 10:15:26;;;;;;;;;;;15.70;59.60;;;;;;5153065;27;19911;-74
2022/04/22 10:17:52;;;;;;;;;;;15.80;59.90;;;;;;5134563;27;19915;-73
2022/04/22 10:20:19;;;;;;;;;;;15.90;59.70;;;;;;5149825;27;20387;-72
2022/04/22 10:22:46;;;;;;;;;;;16.20;60.40;;;;;;5152859;27;19915;-72
2022/04/22 10:25:12;;;;;;;;;;;17.00;60.90;;;;;;5152902;27;19911;-74
2022/04/22 10:27:38;;;;;;;;;;;18.10;60.70;;;;;;5150548;27;19921;-72
2022/04/22 10:30:05;;;;;;;;;;;19.00;60.00;;;;;;5153223;27;19911;-72
2022/04/22 10:32:33;;;;;;;;;;;19.50;59.50;;;;;;5152614;27;19930;-73
2022/04/22 10:35:00;;;;;;;;;;;19.50;59.10;;;;;;5132015;27;19989;-77
2022/04/22 10:37:27;;;;;;;;;;;19.50;59.20;;;;;;5152965;27;20258;-72
2022/04/22 10:39:53;;;;;;;;;;;19.40;59.10;;;;;;5152919;27;19952;-72
2022/04/22 10:42:19;;;;;;;;;;;19.60;59.20;;;;;;5152403;27;20231;-71
2022/04/22 10:47:56;;;;;;;;;;;20.00;59.10;;;;;;5151398;27;20137;-72
2022/04/22 10:50:21;;;;;;;;;;;20.30;58.50;;;;;;5130633;27;19915;-73
2022/04/22 10:52:55;;;;;;;;;;;20.40;58.60;;;;;;5152760;27;20044;-73
2022/04/22 10:55:20;;;;;;;;;;;20.60;58.70;;;;;;5149990;27;19911;-71
2022/04/22 10:57:50;;;;;;;;;;;20.60;58.10;;;;;;5133618;27;19917;-71
2022/04/22 11:00:17;;;;;;;;;;;20.30;58.00;;;;;;5152014;27;19911;-75
2022/04/22 11:02:43;;;;;;;;;;;20.00;58.20;;;;;;5151750;27;19914;-72
2022/04/22 11:05:20;;;;;;;;;;;19.60;58.30;;;;;;5152522;27;20283;-72
2022/04/22 11:07:58;;;;;;;;;;;19.20;58.70;;;;;;5148825;27;20008;-71
2022/04/22 11:10:24;;;;;;;;;;;19.00;59.20;;;;;;5160481;27;20269;-71
2022/04/22 11:12:53;;;;;;;;;;;19.20;59.50;;;;;;5151072;27;19988;-72
2022/04/22 11:15:38;;;;;;;;;;;19.70;59.80;;;;;;5130688;27;20003;-72
2022/04/22 11:18:03;;;;;;;;;;;20.50;60.20;;;;;;5151732;27;20542;-73
2022/04/22 11:20:29;;;;;;;;;;;21.70;59.30;;;;;;5152688;27;20006;-72
2022/04/22 11:22:58;;;;;;;;;;;22.30;58.50;;;;;;5150300;27;19958;-71
2022/04/22 11:25:29;;;;;;;;;;;22.50;57.80;;;;;;5151802;27;20015;-69
2022/04/22 11:27:55;;;;;;;;;;;22.80;57.80;;;;;;5151359;27;20272;-73
2022/04/22 11:30:21;;;;;;;;;;;22.70;57.80;;;;;;5151620;27;19911;-73
2022/04/22 11:32:48;;;;;;;;;;;23.00;57.90;;;;;;5151338;27;20002;-71
2022/04/22 11:35:21;;;;;;;;;;;23.00;57.70;;;;;;5151155;27;19911;-72
2022/04/22 11:37:56;;;;;;;;;;;23.20;57.90;;;;;;5151379;27;19962;-64
2022/04/22 11:40:22;;;;;;;;;;;23.50;57.80;;;;;;5132784;27;20280;-72
2022/04/22 11:42:50;;;;;;;;;;;23.70;57.80;;;;;;5151498;27;19927;-72
2022/04/22 11:45:16;;;;;;;;;;;23.60;57.60;;;;;;5151871;27;19911;-72
2022/04/22 11:47:42;;;;;;;;;;;24.00;57.70;;;;;;5151998;27;19925;-72
2022/04/22 11:50:09;;;;;;;;;;;24.50;57.40;;;;;;5151634;27;19907;-72
2022/04/22 11:52:34;;;;;;;;;;;24.30;56.20;;;;;;5151693;27;19948;-72
2022/04/22 11:55:01;;;;;;;;;;;23.70;56.30;;;;;;5133153;27;19953;-73
2022/04/22 11:57:27;;;;;;;;;;;23.30;56.70;;;;;;5151943;27;19912;-71
2022/04/22 12:05:34;;;;;;;;;;;21.80;56.10;;;;;;5151541;27;19995;-72
2022/04/22 12:08:05;;;;;;;;;;;21.40;56.40;;;;;;5132033;27;20343;-72
2022/04/22 12:10:32;;;;;;;;;;;21.20;56.80;;;;;;5150600;27;19911;-73
2022/04/22 12:13:01;;;;;;;;;;;21.20;57.30;;;;;;5151275;27;19932;-72
2022/04/22 12:15:26;;;;;;;;;;;21.40;56.90;;;;;;5150986;27;20340;-72
2022/04/22 12:17:52;;;;;;;;;;;21.70;56.80;;;;;;5150799;27;20010;-66
2022/04/22 12:20:18;;;;;;;;;;;21.80;56.40;;;;;;5150445;27;20340;-72
2022/04/22 12:22:44;;;;;;;;;;;21.70;56.20;;;;;;5150610;27;20288;-72
2022/04/22 12:25:14;;;;;;;;;;;21.60;55.90;;;;;;5150187;27;19943;-73
2022/04/22 12:27:40;;;;;;;;;;;21.50;55.90;;;;;;5149450;27;19956;-73
2022/04/22 12:30:08;;;;;;;;;;;21.20;55.90;;;;;;5130923;27;20242;-72
2022/04/22 12:32:36;;;;;;;;;;;20.80;55.60;;;;;;5149947;27;19937;-73
2022/04/22 12:35:15;;;;;;;;;;;20.50;56.50;;;;;;5150328;27;20535;-71
2022/04/22 12:37:43;;;;;;;;;;;20.80;56.90;;;;;;5148021;27;19923;-72
2022/04/22 12:40:10;;;;;;;;;;;21.10;56.70;;;;;;5131672;27;19959;-72
2022/04/22 12:42:36;;;;;;;;;;;21.60;57.00;;;;;;5144177;27;19911;-71
2022/04/22 12:53:27;;;;;;;;;;;22.40;56.00;;;;;;5147912;27;19914;-71
2022/04/22 12:56:00;;;;;;;;;;;22.50;55.50;;;;;;5149643;27;19907;-71
2022/04/22 12:58:25;;;;;;;;;;;22.00;55.20;;;;;;5149817;27;19911;-72
2022/04/22 13:00:52;;;;;;;;;;;21.90;56.30;;;;;;5150112;27;19917;-71
2022/04/22 13:03:17;;;;;;;;;;;22.20;56.90;;;;;;5150118;27;19911;-71
2022/04/22 13:05:43;;;;;;;;;;;22.60;56.50;;;;;;5149090;27;19915;-72
2022/04/22 13:08:09;;;;;;;;;;;22.50;55.90;;;;;;5129536;27;20298;-72
2022/04/22 13:10:34;;;;;;;;;;;22.50;55.70;;;;;;5148163;27;19927;-71
2022/04/22 13:13:00;;;;;;;;;;;22.40;55.70;;;;;;5149079;27;19911;-71
2022/04/22 13:15:26;;;;;;;;;;;22.20;55.60;;;;;;5148930;27;20594;-72
2022/04/22 13:17:53;;;;;;;;;;;22.20;55.90;;;;;;5149447;27;20289;-72
2022/04/22 13:20:19;;;;;;;;;;;22.20;55.60;;;;;;5149865;27;19915;-72
2022/04/22 13:22:45;;;;;;;;;;;22.00;55.50;;;;;;5149201;27;20018;-72
2022/04/22 13:25:11;;;;;;;;;;;21.80;55.90;;;;;;5149386;27;20056;-72
2022/04/22 13:27:41;;;;;;;;;;;21.90;56.10;;;;;;5149515;27;19952;-72
2022/04/22 13:30:08;;;;;;;;;;;21.70;55.60;;;;;;5149374;27;19919;-72
2022/04/22 13:32:35;;;;;;;;;;;21.50;55.70;;;;;;5149065;27;19949;-72
2022/04/22 13:35:00;;;;;;;;;;;21.30;55.00;;;;;;5149247;27;19918;-73
2022/04/22 13:37:26;;;;;;;;;;;21.10;55.10;;;;;;5149650;27;19923;-72
2022/04/22 13:39:52;;;;;;;;;;;21.20;55.40;;;;;;5131085;27;19915;-72
2022/04/22 13:42:20;;;;;;;;;;;21.20;54.90;;;;;;5130747;27;20255;-72
2022/04/22 13:52:58;;;;;;;;;;;20.50;54.60;;;;;;5149047;27;19967;-72
2022/04/22 13:55:24;;;;;;;;;;;20.40;54.90;;;;;;5148688;27;19919;-71
2022/04/22 13:57:50;;;;;;;;;;;20.50;55.20;;;;;;5148921;27;20371;-72
2022/04/22 14:00:16;;;;;;;;;;;20.60;55.20;;;;;;5148118;27;19919;-72
2022/04/22 14:02:41;;;;;;;;;;;20.70;55.20;;;;;;5147444;27;20014;-72
2022/04/22 14:05:07;;;;;;;;;;;20.80;55.10;;;;;;5148768;27;19919;-72
2022/04/22 14:07:33;;;;;;;;;;;20.60;55.00;;;;;;5149016;27;20021;-73
2022/04/22 14:09:59;;;;;;;;;;;20.40;55.00;;;;;;5148757;27;19911;-71
2022/04/22 14:12:25;;;;;;;;;;;20.30;54.90;;;;;;5129864;27;19959;-72
2022/04/22 14:14:53;;;;;;;;;;;20.10;54.80;;;;;;5130221;27;20306;-73
2022/04/22 14:17:19;;;;;;;;;;;19.90;54.80;;;;;;5148812;27;19995;-73
2022/04/22 14:19:45;;;;;;;;;;;19.60;54.80;;;;;;5130147;27;19960;-73
2022/04/22 14:22:11;;;;;;;;;;;19.30;55.00;;;;;;5148612;27;20005;-73
2022/04/22 14:24:43;;;;;;;;;;;19.00;55.30;;;;;;5129670;27;20434;-73
2022/04/22 14:27:11;;;;;;;;;;;18.80;55.50;;;;;;5130084;27;19907;-73
2022/04/22 14:29:37;;;;;;;;;;;18.60;55.60;;;;;;5130248;27;19907;-73
2022/04/22 14:32:07;;;;;;;;;;;18.40;55.70;;;;;;5148761;27;19914;-73
2022/04/22 14:34:33;;;;;;;;;;;18.40;56.00;;;;;;5149078;27;20006;-73
2022/04/22 14:36:59;;;;;;;;;;;18.40;55.90;;;;;;5148621;27;20001;-73
2022/04/22 14:39:24;;;;;;;;;;;18.30;55.70;;;;;;5149343;27;19938;-74
2022/04/22 14:41:50;;;;;;;;;;;18.30;56.10;;;;;;5149137;27;19914;-73
2022/04/22 14:44:16;;;;;;;;;;;18.30;56.10;;;;;;5148310;27;19923;-73
2022/04/22 14:46:42;;;;;;;;;;;18.20;56.20;;;;;;5147905;27;19925;-74
2022/04/22 14:49:10;;;;;;;;;;;18.20;56.30;;;;;;5148084;27;19911;-76
2022/04/22 14:51:35;;;;;;;;;;;18.20;56.30;;;;;;5148903;27;19907;-74
2022/04/22 14:54:01;;;;;;;;;;;18.30;56.30;;;;;;5149186;27;20644;-73
2022/04/22 14:56:27;;;;;;;;;;;18.20;56.20;;;;;;5148674;27;19933;-73
2022/04/22 14:58:52;;;;;;;;;;;18.00;56.20;;;;;;5152314;27;19918;-74
2022/04/22 15:01:18;;;;;;;;;;;17.90;56.40;;;;;;5152245;27;20341;-74
2022/04/22 15:03:44;;;;;;;;;;;17.90;56.70;;;;;;5151628;27;20203;-74
2022/04/22 15:06:09;;;;;;;;;;;18.00;56.70;;;;;;5151557;27;19990;-73
2022/04/22 15:08:35;;;;;;;;;;;18.00;56.70;;;;;;5152351;27;19907;-73
2022/04/22 15:11:00;;;;;;;;;;;18.10;56.60;;;;;;5152314;27;19915;-74
2022/04/22 15:13:26;;;;;;;;;;;18.20;56.70;;;;;;5152420;27;20001;-73
2022/04/22 15:15:52;;;;;;;;;;;18.20;56.70;;;;;;5152527;27;19922;-73
2022/04/22 15:26:31;;;;;;;;;;;18.50;56.40;;;;;;5151708;27;19958;-74
2022/04/22 15:28:56;;;;;;;;;;;18.40;56.30;;;;;;5132957;27;20364;-73
2022/04/22 15:31:22;;;;;;;;;;;18.30;56.30;;;;;;5151763;27;19911;-73
2022/04/22 15:33:48;;;;;;;;;;;18.10;56.30;;;;;;5151302;27;19930;-73
2022/04/22 15:36:13;;;;;;;;;;;18.10;56.30;;;;;;5151441;27;20246;-72